createdAt,value
2023-02-03T00:00:19.450Z,3.62
2023-02-03T00:03:12.077Z,3.59
2023-02-03T00:05:45.208Z,3.58
2023-02-03T00:08:19.625Z,3.59
2023-02-03T00:10:52.536Z,3.59
2023-02-03T00:13:26.807Z,3.59
2023-02-03T00:16:01.601Z,3.57
2023-02-03T00:18:34.188Z,3.52
2023-02-03T00:21:06.862Z,3.51
2023-02-03T00:23:39.290Z,3.48
2023-02-03T00:26:13.951Z,3.45
2023-02-03T00:28:47.948Z,3.45
2023-02-03T00:31:22.550Z,3.42
2023-02-03T00:33:58.818Z,3.39
2023-02-03T00:36:31.378Z,3.35
2023-02-03T00:39:04.818Z,3.36
2023-02-03T00:41:38.781Z,3.37
2023-02-03T00:44:13.455Z,3.36
2023-02-03T00:46:46.826Z,3.37
2023-02-03T00:49:19.867Z,3.35
2023-02-03T00:51:53.083Z,3.34
2023-02-03T00:54:26.684Z,3.34
2023-02-03T00:56:59.392Z,3.32
2023-02-03T00:59:32.634Z,3.29
2023-02-03T01:02:05.832Z,3.25
2023-02-03T01:04:38.664Z,3.22
2023-02-03T01:07:11.646Z,3.21
2023-02-03T01:09:44.233Z,3.21
2023-02-03T01:12:16.648Z,3.19
2023-02-03T01:14:49.103Z,3.17
2023-02-03T01:17:22.614Z,3.14
2023-02-03T01:19:57.383Z,3.14
2023-02-03T01:22:32.005Z,3.12
2023-02-03T01:25:04.711Z,3.10
2023-02-03T01:27:37.411Z,3.09
2023-02-03T01:30:11.455Z,3.07
2023-02-03T01:32:43.978Z,3.04
2023-02-03T01:35:16.788Z,3.02
2023-02-03T01:37:49.162Z,3.01
2023-02-03T01:40:22.055Z,3.01
2023-02-03T01:42:54.522Z,3.01
2023-02-03T01:45:27.056Z,3.02
2023-02-03T01:48:01.563Z,3.02
2023-02-03T01:50:37.640Z,3.00
2023-02-03T01:53:13.356Z,2.96
2023-02-03T01:55:50.314Z,2.95
2023-02-03T01:58:26.054Z,2.94
2023-02-03T02:00:59.392Z,2.93
2023-02-03T02:03:37.772Z,2.92
2023-02-03T02:06:11.761Z,2.91
2023-02-03T02:08:51.504Z,2.90
2023-02-03T02:11:24.530Z,2.89
2023-02-03T02:13:59.758Z,2.89
2023-02-03T02:16:34.596Z,2.90
2023-02-03T02:19:28.930Z,2.88
2023-02-03T02:22:14.616Z,2.85
2023-02-03T02:25:15.917Z,2.83
2023-02-03T02:28:31.170Z,2.84
2023-02-03T02:31:24.685Z,2.85
2023-02-03T02:34:04.870Z,2.84
2023-02-03T02:36:46.818Z,2.83
2023-02-03T02:39:25.132Z,2.83
2023-02-03T02:42:04.879Z,2.80
2023-02-03T02:44:42.931Z,2.77
2023-02-03T02:47:20.993Z,2.73
2023-02-03T02:49:59.780Z,2.74
2023-02-03T02:52:37.359Z,2.72
2023-02-03T02:55:16.116Z,2.73
2023-02-03T02:57:50.629Z,2.70
2023-02-03T03:00:24.671Z,2.70
2023-02-03T03:02:57.710Z,2.71
2023-02-03T03:05:31.174Z,2.72
2023-02-03T03:08:05.279Z,2.73
2023-02-03T03:10:39.231Z,2.74
2023-02-03T03:13:17.793Z,2.73
2023-02-03T03:15:54.497Z,2.73
2023-02-03T03:18:31.901Z,2.73
2023-02-03T03:21:08.205Z,2.74
2023-02-03T03:23:43.132Z,2.75
2023-02-03T03:26:19.357Z,2.77
2023-02-03T03:28:53.843Z,2.77
2023-02-03T03:31:27.186Z,2.76
2023-02-03T03:34:00.128Z,2.76
2023-02-03T03:36:37.087Z,2.76
2023-02-03T03:39:14.904Z,2.75
2023-02-03T03:41:57.752Z,2.75
2023-02-03T03:44:36.547Z,2.75
2023-02-03T03:47:16.171Z,2.76
2023-02-03T03:49:51.866Z,2.76
2023-02-03T03:52:29.154Z,2.77
2023-02-03T03:55:03.729Z,2.78
2023-02-03T03:57:41.184Z,2.78
2023-02-03T04:00:21.272Z,2.79
2023-02-03T04:02:57.898Z,2.82
2023-02-03T04:05:32.175Z,2.81
2023-02-03T04:08:04.644Z,2.82
2023-02-03T04:10:39.662Z,2.83
2023-02-03T04:13:14.711Z,2.83
2023-02-03T04:15:47.161Z,2.83
2023-02-03T04:18:20.609Z,2.83
2023-02-03T04:20:53.138Z,2.81
2023-02-03T04:23:25.551Z,2.81
2023-02-03T04:25:57.935Z,2.77
2023-02-03T04:28:30.520Z,2.76
2023-02-03T04:31:04.729Z,2.75
2023-02-03T04:33:37.141Z,2.76
2023-02-03T04:36:11.092Z,2.75
2023-02-03T04:38:43.535Z,2.75
2023-02-03T04:41:16.039Z,2.74
2023-02-03T04:43:48.488Z,2.74
2023-02-03T04:46:20.944Z,2.75
2023-02-03T04:48:53.335Z,2.74
2023-02-03T04:51:25.760Z,2.74
2023-02-03T04:53:58.293Z,2.74
2023-02-03T04:56:30.664Z,2.73
2023-02-03T04:59:03.476Z,2.72
2023-02-03T05:01:35.969Z,2.70
2023-02-03T05:04:08.572Z,2.69
2023-02-03T05:06:41.039Z,2.68
2023-02-03T05:09:13.496Z,2.68
2023-02-03T05:11:46.052Z,2.68
2023-02-03T05:14:18.455Z,2.67
2023-02-03T05:16:51.146Z,2.66
2023-02-03T05:19:23.596Z,2.65
2023-02-03T05:21:56.087Z,2.66
2023-02-03T05:24:28.740Z,2.68
2023-02-03T05:27:01.186Z,2.69
2023-02-03T05:29:33.703Z,2.66
2023-02-03T05:32:06.595Z,2.60
2023-02-03T05:34:41.339Z,2.55
2023-02-03T05:37:14.773Z,2.51
2023-02-03T05:39:47.173Z,2.52
2023-02-03T05:42:19.571Z,2.52
2023-02-03T05:44:51.976Z,2.53
2023-02-03T05:47:24.370Z,2.53
2023-02-03T05:49:56.817Z,2.50
2023-02-03T05:52:29.754Z,2.42
2023-02-03T05:55:02.363Z,2.37
2023-02-03T05:57:34.857Z,2.34
2023-02-03T06:00:10.062Z,2.35
2023-02-03T06:02:44.961Z,2.32
2023-02-03T06:05:17.659Z,2.30
2023-02-03T06:07:50.418Z,2.26
2023-02-03T06:10:23.613Z,2.23
2023-02-03T06:12:56.051Z,2.24
2023-02-03T06:15:28.518Z,2.25
2023-02-03T06:18:01.296Z,2.24
2023-02-03T06:20:34.209Z,2.24
2023-02-03T06:23:06.828Z,2.25
2023-02-03T06:25:39.267Z,2.24
2023-02-03T06:28:11.897Z,2.24
2023-02-03T06:30:44.501Z,2.25
2023-02-03T06:33:17.171Z,2.22
2023-02-03T06:35:49.681Z,2.21
2023-02-03T06:38:22.197Z,2.23
2023-02-03T06:40:54.569Z,2.24
2023-02-03T06:43:27.176Z,2.21
2023-02-03T06:45:59.710Z,2.18
2023-02-03T06:48:32.151Z,2.16
2023-02-03T06:51:05.785Z,2.15
2023-02-03T06:53:38.254Z,2.15
2023-02-03T06:56:10.807Z,2.21
2023-02-03T06:58:43.254Z,2.25
2023-02-03T07:01:16.158Z,2.27
2023-02-03T07:03:49.103Z,2.27
2023-02-03T07:06:22.117Z,2.30
2023-02-03T07:08:54.489Z,2.30
2023-02-03T07:11:28.247Z,2.33
2023-02-03T07:14:00.749Z,2.36
2023-02-03T07:16:34.456Z,2.37
2023-02-03T07:19:07.696Z,2.40
2023-02-03T07:21:40.065Z,2.45
2023-02-03T07:24:12.423Z,2.45
2023-02-03T07:26:44.843Z,2.40
2023-02-03T07:29:17.289Z,2.39
2023-02-03T07:31:49.947Z,2.39
2023-02-03T07:34:22.491Z,2.41
2023-02-03T07:36:54.993Z,2.40
2023-02-03T07:39:27.345Z,2.41
2023-02-03T07:41:59.819Z,2.40
2023-02-03T07:44:32.957Z,2.39
2023-02-03T07:47:05.438Z,2.36
2023-02-03T07:49:37.990Z,2.36
2023-02-03T07:52:10.549Z,2.36
2023-02-03T07:54:42.993Z,2.36
2023-02-03T07:57:15.516Z,2.37
2023-02-03T07:59:47.914Z,2.38
2023-02-03T08:02:20.414Z,2.38
2023-02-03T08:04:52.931Z,2.34
2023-02-03T08:07:25.621Z,2.30
2023-02-03T08:09:58.071Z,2.30
2023-02-03T08:12:30.542Z,2.29
2023-02-03T08:15:03.205Z,2.27
2023-02-03T08:17:35.844Z,2.30
2023-02-03T08:20:09.912Z,2.33
2023-02-03T08:22:42.342Z,2.35
2023-02-03T08:25:15.156Z,2.36
2023-02-03T08:27:47.780Z,2.38
2023-02-03T08:30:20.125Z,2.39
2023-02-03T08:32:55.704Z,2.44
2023-02-03T08:35:28.195Z,2.44
2023-02-03T08:38:00.729Z,2.45
2023-02-03T08:40:33.256Z,2.47
2023-02-03T08:43:05.613Z,2.50
2023-02-03T08:45:38.199Z,2.53
2023-02-03T08:48:10.705Z,2.57
2023-02-03T08:50:52.029Z,2.59
2023-02-03T08:53:24.386Z,2.61
2023-02-03T08:55:57.191Z,2.62
2023-02-03T08:58:29.585Z,2.63
2023-02-03T09:01:10.668Z,2.66
2023-02-03T09:03:43.654Z,2.70
2023-02-03T09:06:16.881Z,2.74
2023-02-03T09:08:49.786Z,2.74
2023-02-03T09:11:22.338Z,2.74
2023-02-03T09:13:56.964Z,2.77
2023-02-03T09:16:31.097Z,2.77
2023-02-03T09:19:03.863Z,2.78
2023-02-03T09:21:38.653Z,2.75
2023-02-03T09:24:18.657Z,2.68
2023-02-03T09:26:51.125Z,2.66
2023-02-03T09:29:23.723Z,2.61
2023-02-03T09:31:56.144Z,2.61
2023-02-03T09:34:29.190Z,2.56
2023-02-03T09:37:02.501Z,2.56
2023-02-03T09:39:34.981Z,2.55
2023-02-03T09:42:20.609Z,2.50
2023-02-03T09:44:55.517Z,2.47
2023-02-03T09:47:30.837Z,2.42
2023-02-03T09:50:05.800Z,2.43
2023-02-03T09:52:42.162Z,2.46
2023-02-03T09:55:26.693Z,2.41
2023-02-03T09:58:04.785Z,2.39
2023-02-03T10:00:42.578Z,2.39
2023-02-03T10:03:26.137Z,2.38
2023-02-03T10:06:15.052Z,2.40
2023-02-03T10:09:20.411Z,2.39
2023-02-03T10:12:21.804Z,2.46
2023-02-03T10:15:11.324Z,2.46
2023-02-03T10:17:48.821Z,2.44
2023-02-03T10:20:25.734Z,2.46
2023-02-03T10:23:03.196Z,2.46
2023-02-03T10:25:41.455Z,2.43
2023-02-03T10:28:19.105Z,2.44
2023-02-03T10:30:55.696Z,2.45
2023-02-03T10:33:30.799Z,2.47
2023-02-03T10:36:12.543Z,2.49
2023-02-03T10:38:52.345Z,2.52
2023-02-03T10:41:25.593Z,2.52
2023-02-03T10:43:58.318Z,2.50
2023-02-03T10:46:33.537Z,2.55
2023-02-03T10:49:06.803Z,2.57
2023-02-03T10:51:42.774Z,2.53
2023-02-03T10:54:32.159Z,2.54
2023-02-03T10:57:13.132Z,2.54
2023-02-03T10:59:47.760Z,2.52
2023-02-03T11:02:30.077Z,2.49
2023-02-03T11:05:25.140Z,2.49
2023-02-03T11:07:57.807Z,2.49
2023-02-03T11:10:35.877Z,2.47
2023-02-03T11:13:22.531Z,2.47
2023-02-03T11:16:04.077Z,2.45
2023-02-03T11:18:52.628Z,2.46
2023-02-03T11:21:26.954Z,2.52
2023-02-03T11:24:04.731Z,2.55
2023-02-03T11:26:43.066Z,2.54
2023-02-03T11:29:24.270Z,2.55
2023-02-03T11:31:58.667Z,2.55
2023-02-03T11:34:34.601Z,2.54
2023-02-03T11:37:29.909Z,2.54
2023-02-03T11:40:25.407Z,2.56
2023-02-03T11:43:15.665Z,2.56
2023-02-03T11:45:50.249Z,2.55
2023-02-03T11:48:29.272Z,2.59
2023-02-03T11:51:06.867Z,2.58
2023-02-03T11:53:59.009Z,2.60
2023-02-03T11:56:40.814Z,2.59
2023-02-03T11:59:33.442Z,2.58
2023-02-03T12:02:35.251Z,2.52
2023-02-03T12:05:27.621Z,2.51
2023-02-03T12:08:15.900Z,2.49
2023-02-03T12:10:58.351Z,2.47
2023-02-03T12:13:48.470Z,2.46
2023-02-03T12:16:48.863Z,2.46
2023-02-03T12:19:30.203Z,2.42
2023-02-03T12:22:11.999Z,2.41
2023-02-03T12:24:54.020Z,2.40
2023-02-03T12:27:42.962Z,2.43
2023-02-03T12:30:23.524Z,2.43
2023-02-03T12:33:00.786Z,2.43
2023-02-03T12:35:37.717Z,2.39
2023-02-03T12:38:16.159Z,2.37
2023-02-03T12:40:53.069Z,2.34
2023-02-03T12:43:32.961Z,2.34
2023-02-03T12:46:11.509Z,2.31
2023-02-03T12:48:52.841Z,2.27
2023-02-03T12:51:34.579Z,2.24
2023-02-03T12:54:17.703Z,2.20
2023-02-03T12:56:55.163Z,2.16
2023-02-03T12:59:31.644Z,2.12
2023-02-03T13:02:14.547Z,2.12
2023-02-03T13:04:56.877Z,2.10
2023-02-03T13:07:37.935Z,2.09
2023-02-03T13:10:20.769Z,2.10
2023-02-03T13:12:57.287Z,2.12
2023-02-03T13:15:33.196Z,2.12
2023-02-03T13:18:15.777Z,2.13
2023-02-03T13:20:48.531Z,2.14
2023-02-03T13:23:21.213Z,2.12
2023-02-03T13:26:33.684Z,2.10
2023-02-03T13:29:28.935Z,2.07
2023-02-03T13:32:17.084Z,2.05
2023-02-03T13:35:24.791Z,2.03
2023-02-03T13:38:34.940Z,2.05
2023-02-03T13:41:12.344Z,2.04
2023-02-03T13:43:50.600Z,2.00
2023-02-03T13:46:27.365Z,2.05
2023-02-03T13:49:02.813Z,2.03
2023-02-03T13:51:37.414Z,2.01
2023-02-03T13:54:16.876Z,2.00
2023-02-03T13:57:00.033Z,2.00
2023-02-03T13:59:45.172Z,2.03
2023-02-03T14:02:47.606Z,2.05
2023-02-03T14:05:42.352Z,2.09
2023-02-03T14:08:53.208Z,2.09
2023-02-03T14:11:45.875Z,2.11
2023-02-03T14:14:46.671Z,2.13
2023-02-03T14:18:04.971Z,2.13
2023-02-03T14:20:51.547Z,2.11
2023-02-03T14:23:35.285Z,2.11
2023-02-03T14:26:16.440Z,2.11
2023-02-03T14:28:50.645Z,2.06
2023-02-03T14:31:25.368Z,2.07
2023-02-03T14:34:09.505Z,2.09
2023-02-03T14:36:47.003Z,2.10
2023-02-03T14:39:44.232Z,2.09
2023-02-03T14:42:26.076Z,2.08
2023-02-03T14:45:11.969Z,2.06
2023-02-03T14:48:00.145Z,2.07
2023-02-03T14:50:45.565Z,2.00
2023-02-03T14:53:53.650Z,1.98
2023-02-03T14:56:54.823Z,2.00
2023-02-03T14:59:31.804Z,1.98
2023-02-03T15:02:26.067Z,1.99
2023-02-03T15:05:40.556Z,2.01
2023-02-03T15:08:37.253Z,2.04
2023-02-03T15:11:27.134Z,2.02
2023-02-03T15:14:18.912Z,2.04
2023-02-03T15:16:57.765Z,2.07
2023-02-03T15:19:34.533Z,2.10
2023-02-03T15:22:21.529Z,2.13
2023-02-03T15:24:56.976Z,2.16
2023-02-03T15:27:31.911Z,2.18
2023-02-03T15:30:19.697Z,2.17
2023-02-03T15:33:01.429Z,2.17
2023-02-03T15:35:37.111Z,2.18
2023-02-03T15:38:13.777Z,2.18
2023-02-03T15:40:50.388Z,2.21
2023-02-03T15:43:27.107Z,2.24
2023-02-03T15:46:07.231Z,2.24
2023-02-03T15:48:44.886Z,2.21
2023-02-03T15:51:20.862Z,2.21
2023-02-03T15:53:59.354Z,2.23
2023-02-03T15:56:37.972Z,2.23
2023-02-03T15:59:22.916Z,2.25
2023-02-03T16:01:56.139Z,2.27
2023-02-03T16:04:28.734Z,2.31
2023-02-03T16:07:01.854Z,2.35
2023-02-03T16:09:40.344Z,2.39
2023-02-03T16:12:26.581Z,2.42
2023-02-03T16:15:01.778Z,2.45
2023-02-03T16:17:34.115Z,2.48
2023-02-03T16:20:33.518Z,2.49
2023-02-03T16:23:19.370Z,2.50
2023-02-03T16:26:17.851Z,2.51
2023-02-03T16:29:23.441Z,2.51
2023-02-03T16:32:13.614Z,2.51
2023-02-03T16:35:04.286Z,2.51
2023-02-03T16:38:03.059Z,2.51
2023-02-03T16:40:53.307Z,2.50
2023-02-03T16:43:43.353Z,2.50
2023-02-03T16:46:33.643Z,2.49
2023-02-03T16:49:24.093Z,2.47
2023-02-03T16:51:56.669Z,2.47
2023-02-03T16:54:29.173Z,2.48
2023-02-03T16:57:01.620Z,2.48
2023-02-03T16:59:34.964Z,2.48
2023-02-03T17:02:08.192Z,2.48
2023-02-03T17:04:40.656Z,2.48
2023-02-03T17:07:13.336Z,2.48
2023-02-03T17:09:45.890Z,2.48
2023-02-03T17:12:18.314Z,2.49
2023-02-03T17:14:50.776Z,2.45
2023-02-03T17:17:23.239Z,2.43
2023-02-03T17:19:57.076Z,2.43
2023-02-03T17:22:30.622Z,2.45
2023-02-03T17:25:03.379Z,2.46
2023-02-03T17:27:35.854Z,2.47
2023-02-03T17:30:12.023Z,2.50
2023-02-03T17:32:44.419Z,2.50
2023-02-03T17:35:16.865Z,2.48
2023-02-03T17:37:49.300Z,2.47
2023-02-03T17:54:34.711Z,2.36
2023-02-03T17:57:07.387Z,2.37
2023-02-03T17:59:39.960Z,2.36
2023-02-03T18:02:13.179Z,2.37
2023-02-03T18:04:45.595Z,2.39
2023-02-03T18:07:18.096Z,2.39
2023-02-03T18:09:50.671Z,2.40
2023-02-03T18:12:23.513Z,2.39
2023-02-03T18:14:57.745Z,2.38
2023-02-03T18:17:30.556Z,2.35
2023-02-03T18:20:04.111Z,2.31
2023-02-03T18:22:36.968Z,2.32
2023-02-03T18:25:10.259Z,2.32
2023-02-03T18:27:42.978Z,2.30
2023-02-03T18:30:18.757Z,2.28
2023-02-03T18:32:54.200Z,2.30
2023-02-03T18:35:26.566Z,2.28
2023-02-03T18:37:58.999Z,2.28
2023-02-03T18:40:31.988Z,2.29
2023-02-03T18:43:04.625Z,2.30
2023-02-03T18:45:38.620Z,2.29
2023-02-03T18:48:11.069Z,2.30
2023-02-03T18:50:45.465Z,2.32
2023-02-03T18:53:17.916Z,2.33
2023-02-03T18:55:50.365Z,2.32
2023-02-03T18:58:22.892Z,2.31
2023-02-03T19:00:56.202Z,2.33
2023-02-03T19:03:28.761Z,2.36
2023-02-03T19:06:01.387Z,2.36
2023-02-03T19:08:33.965Z,2.35
2023-02-03T19:11:06.765Z,2.36
2023-02-03T19:13:39.259Z,2.35
2023-02-03T19:16:14.326Z,2.34
2023-02-03T19:18:47.782Z,2.33
2023-02-03T19:21:23.240Z,2.32
2023-02-03T19:23:55.855Z,2.33
2023-02-03T19:26:29.040Z,2.32
2023-02-03T19:29:01.645Z,2.33
2023-02-03T19:31:35.957Z,2.35
2023-02-03T19:34:10.744Z,2.36
2023-02-03T19:36:43.604Z,2.36
2023-02-03T19:39:18.828Z,2.37
2023-02-03T19:41:52.759Z,2.37
2023-02-03T19:44:25.343Z,2.38
2023-02-03T19:46:59.134Z,2.36
2023-02-03T19:49:31.570Z,2.33
2023-02-03T19:52:05.473Z,2.35
2023-02-03T19:54:39.471Z,2.37
2023-02-03T19:57:14.010Z,2.40
2023-02-03T19:59:47.541Z,2.40
2023-02-03T20:02:20.304Z,2.37
2023-02-03T20:04:52.985Z,2.37
2023-02-03T20:07:25.685Z,2.36
2023-02-03T20:09:58.109Z,2.36
2023-02-03T20:12:32.012Z,2.37
2023-02-03T20:15:04.661Z,2.38
2023-02-03T20:17:37.107Z,2.37
2023-02-03T20:20:12.258Z,2.31
2023-02-03T20:22:43.109Z,2.28
2023-02-03T20:25:15.566Z,2.25
2023-02-03T20:27:48.316Z,2.24
2023-02-03T20:30:20.973Z,2.20
2023-02-03T20:32:54.782Z,2.18
2023-02-03T20:35:27.777Z,2.20
2023-02-03T20:38:00.373Z,2.22
2023-02-03T20:40:33.253Z,2.23
2023-02-03T20:43:14.331Z,2.25
2023-02-03T20:45:47.497Z,2.26
2023-02-03T20:48:22.413Z,2.27
2023-02-03T20:50:55.365Z,2.27
2023-02-03T20:53:28.610Z,2.26
2023-02-03T20:56:02.167Z,2.26
2023-02-03T20:58:37.357Z,2.25
2023-02-03T21:01:16.003Z,2.27
2023-02-03T21:04:06.887Z,2.26
2023-02-03T21:06:39.671Z,2.26
2023-02-03T21:09:16.500Z,2.25
2023-02-03T21:11:49.024Z,2.25
2023-02-03T21:14:23.546Z,2.28
2023-02-03T21:16:56.664Z,2.30
2023-02-03T21:19:34.111Z,2.30
2023-02-03T21:22:19.666Z,2.31
2023-02-03T21:24:52.326Z,2.31
2023-02-03T21:27:29.553Z,2.31
2023-02-03T21:30:03.775Z,2.28
2023-02-03T21:32:41.197Z,2.29
2023-02-03T21:35:25.770Z,2.29
2023-02-03T21:38:02.144Z,2.29
2023-02-03T21:40:36.021Z,2.27
2023-02-03T21:43:19.608Z,2.25
2023-02-03T21:45:52.617Z,2.22
2023-02-03T21:48:33.794Z,2.19
2023-02-03T21:51:15.436Z,2.18
2023-02-03T21:53:53.943Z,2.14
2023-02-03T21:56:31.426Z,2.10
2023-02-03T21:59:05.001Z,2.05
2023-02-03T22:01:42.647Z,2.04
2023-02-03T22:04:15.030Z,2.03
2023-02-03T22:06:49.728Z,2.03
2023-02-03T22:09:24.373Z,2.00
2023-02-03T22:11:56.934Z,1.98
2023-02-03T22:14:29.375Z,1.96
2023-02-03T22:17:01.849Z,1.95
2023-02-03T22:19:34.350Z,1.91
2023-02-03T22:22:06.880Z,1.88
2023-02-03T22:24:39.378Z,1.84
2023-02-03T22:27:11.805Z,1.82
2023-02-03T22:29:44.483Z,1.81
2023-02-03T22:32:16.935Z,1.78
2023-02-03T22:34:49.446Z,1.74
2023-02-03T22:37:21.989Z,1.71
2023-02-03T22:39:54.434Z,1.68
2023-02-03T22:42:26.912Z,1.67
2023-02-03T22:44:59.217Z,1.64
2023-02-03T22:47:31.629Z,1.63
2023-02-03T22:50:04.670Z,1.64
2023-02-03T22:52:37.296Z,1.66
2023-02-03T22:55:11.464Z,1.66
2023-02-03T22:57:43.861Z,1.65
2023-02-03T23:00:22.375Z,1.64
2023-02-03T23:02:55.037Z,1.61
2023-02-03T23:05:27.634Z,1.56
2023-02-03T23:08:00.316Z,1.52
2023-02-03T23:10:33.030Z,1.49
2023-02-03T23:13:05.880Z,1.49
2023-02-03T23:15:38.450Z,1.52
2023-02-03T23:18:10.893Z,1.52
2023-02-03T23:20:43.463Z,1.49
2023-02-03T23:23:16.279Z,1.46
2023-02-03T23:25:48.696Z,1.42
2023-02-03T23:28:21.161Z,1.41
2023-02-03T23:30:53.650Z,1.39
2023-02-03T23:33:26.142Z,1.36
2023-02-03T23:35:58.525Z,1.38
2023-02-03T23:38:32.382Z,1.41
2023-02-03T23:41:04.937Z,1.45
2023-02-03T23:43:38.026Z,1.48
2023-02-03T23:46:11.701Z,1.50
2023-02-03T23:48:44.227Z,1.53
2023-02-03T23:51:16.662Z,1.56
2023-02-03T23:53:49.123Z,1.59
2023-02-03T23:56:21.580Z,1.63
2023-02-03T23:58:53.922Z,1.66
